Time;durP1;ratioP1;P1;durP2;ratioP2;P2;SDS_P1;SDS_P2;PMS_P1;PMS_P2;Temp;Humidity;BMP_temperature;BMP_pressure;BME280_temperature;BME280_humidity;BME280_pressure;Samples;Min_cycle;Max_cycle;Signal;HPM_P1;HPM_P2
2023/06/06 00:01:46;;;;;;;;;;;21.40;49.40;;;;;;10367118;28;841;-74
2023/06/06 00:06:44;;;;;;;;;;;21.40;49.40;;;;;;10367506;28;1898;-74
2023/06/06 00:11:44;;;;;;;;;;;21.40;49.40;;;;;;10366773;28;909;-74
2023/06/06 00:16:40;;;;;;;;;;;21.40;49.40;;;;;;10366054;28;884;-74
2023/06/06 00:21:35;;;;;;;;;;;21.40;49.40;;;;;;10367254;28;870;-74
2023/06/06 00:26:31;;;;;;;;;;;21.40;49.50;;;;;;10366458;28;1902;-74
2023/06/06 00:31:26;;;;;;;;;;;21.40;49.40;;;;;;10367089;28;847;-74
2023/06/06 00:36:22;;;;;;;;;;;21.40;49.50;;;;;;10366293;28;1219;-74
2023/06/06 00:41:17;;;;;;;;;;;21.40;49.50;;;;;;10365674;28;1494;-74
2023/06/06 00:46:13;;;;;;;;;;;21.40;49.50;;;;;;10366667;28;1906;-74
2023/06/06 00:51:08;;;;;;;;;;;21.40;49.50;;;;;;10366028;28;1005;-74
2023/06/06 00:56:04;;;;;;;;;;;21.40;49.60;;;;;;10366008;28;982;-74
2023/06/06 01:01:01;;;;;;;;;;;21.40;49.50;;;;;;10365298;28;956;-74
2023/06/06 01:05:57;;;;;;;;;;;21.40;49.60;;;;;;10365678;28;1898;-74
2023/06/06 01:10:52;;;;;;;;;;;21.40;49.60;;;;;;10366363;28;841;-74
2023/06/06 01:15:47;;;;;;;;;;;21.30;49.40;;;;;;10365586;28;952;-74
2023/06/06 01:20:43;;;;;;;;;;;21.30;49.50;;;;;;10365818;28;871;-74
2023/06/06 01:25:40;;;;;;;;;;;21.30;49.50;;;;;;10366247;28;1965;-73
2023/06/06 01:30:35;;;;;;;;;;;21.40;49.70;;;;;;10373522;28;953;-74
2023/06/06 01:35:30;;;;;;;;;;;21.30;49.60;;;;;;10372942;28;1286;-74
2023/06/06 01:40:27;;;;;;;;;;;21.30;49.40;;;;;;10373239;28;960;-74
2023/06/06 01:45:22;;;;;;;;;;;21.40;49.50;;;;;;10372345;28;867;-74
2023/06/06 01:50:18;;;;;;;;;;;21.30;49.50;;;;;;10372782;28;1986;-74
2023/06/06 01:55:13;;;;;;;;;;;21.40;49.50;;;;;;10372045;28;822;-74
2023/06/06 02:00:08;;;;;;;;;;;21.40;49.50;;;;;;10372409;28;844;-74
2023/06/06 02:05:04;;;;;;;;;;;21.40;49.50;;;;;;10372009;28;954;-74
2023/06/06 02:09:59;;;;;;;;;;;21.50;49.50;;;;;;10371318;28;1905;-74
2023/06/06 02:14:54;;;;;;;;;;;21.50;49.50;;;;;;10371246;28;772;-74
2023/06/06 02:19:50;;;;;;;;;;;21.40;49.40;;;;;;10371083;28;895;-74
2023/06/06 02:24:46;;;;;;;;;;;21.40;49.40;;;;;;10370921;28;972;-74
2023/06/06 02:29:41;;;;;;;;;;;21.40;49.40;;;;;;10370570;28;1961;-74
2023/06/06 02:34:37;;;;;;;;;;;21.40;49.40;;;;;;10370474;28;1294;-74
2023/06/06 02:39:32;;;;;;;;;;;21.40;49.40;;;;;;10369641;28;883;-74
2023/06/06 02:44:27;;;;;;;;;;;21.40;49.40;;;;;;10370907;28;864;-73
2023/06/06 02:49:23;;;;;;;;;;;21.40;49.40;;;;;;10369847;28;1910;-74
2023/06/06 02:54:18;;;;;;;;;;;21.40;49.40;;;;;;10369721;28;896;-74
2023/06/06 02:59:14;;;;;;;;;;;21.40;49.50;;;;;;10370784;28;952;-74
2023/06/06 03:04:09;;;;;;;;;;;21.40;49.40;;;;;;10368607;28;1172;-74
2023/06/06 03:09:05;;;;;;;;;;;21.40;49.40;;;;;;10368413;28;1905;-74
2023/06/06 03:14:00;;;;;;;;;;;21.40;49.40;;;;;;10332234;28;1258;-74
2023/06/06 03:18:55;;;;;;;;;;;21.40;49.40;;;;;;10327843;28;826;-74
2023/06/06 03:23:51;;;;;;;;;;;21.40;49.50;;;;;;10327302;28;968;-73
2023/06/06 03:28:46;;;;;;;;;;;21.40;49.50;;;;;;10327187;28;1902;-74
2023/06/06 03:33:41;;;;;;;;;;;21.40;49.50;;;;;;10327424;28;1179;-74
2023/06/06 03:38:37;;;;;;;;;;;21.40;49.50;;;;;;10326190;28;881;-74
2023/06/06 03:43:32;;;;;;;;;;;21.40;49.50;;;;;;10327337;28;849;-74
2023/06/06 03:48:28;;;;;;;;;;;21.40;49.50;;;;;;10325997;28;1922;-74
2023/06/06 03:53:23;;;;;;;;;;;21.30;49.40;;;;;;10326161;28;930;-74
2023/06/06 03:58:20;;;;;;;;;;;21.40;49.50;;;;;;10326739;28;837;-74
2023/06/06 04:03:16;;;;;;;;;;;21.30;49.60;;;;;;10326222;28;859;-74
2023/06/06 04:08:11;;;;;;;;;;;21.30;49.50;;;;;;10326400;28;1910;-74
2023/06/06 04:13:06;;;;;;;;;;;21.30;49.60;;;;;;10325931;28;886;-74
2023/06/06 04:18:02;;;;;;;;;;;21.30;49.50;;;;;;10325115;28;912;-74
2023/06/06 04:23:00;;;;;;;;;;;21.30;49.50;;;;;;10325617;28;806;-74
2023/06/06 04:27:55;;;;;;;;;;;21.30;49.50;;;;;;10325379;28;1902;-74
2023/06/06 04:32:52;;;;;;;;;;;21.30;49.60;;;;;;10324811;28;834;-74
2023/06/06 04:37:48;;;;;;;;;;;21.30;49.70;;;;;;10326257;28;1148;-74
2023/06/06 04:42:45;;;;;;;;;;;21.30;49.70;;;;;;10325860;28;839;-74
2023/06/06 04:47:40;;;;;;;;;;;21.30;49.60;;;;;;10325575;28;1906;-74
2023/06/06 04:52:36;;;;;;;;;;;21.30;49.60;;;;;;10326369;28;916;-74
2023/06/06 04:57:32;;;;;;;;;;;21.30;49.60;;;;;;10325798;28;869;-74
2023/06/06 05:02:29;;;;;;;;;;;21.30;49.50;;;;;;10328513;28;975;-74
2023/06/06 05:07:24;;;;;;;;;;;21.30;49.60;;;;;;10333219;28;2062;-74
2023/06/06 05:12:20;;;;;;;;;;;21.30;49.60;;;;;;10332425;28;980;-74
2023/06/06 05:17:17;;;;;;;;;;;21.30;49.60;;;;;;10332292;28;860;-74
2023/06/06 05:22:13;;;;;;;;;;;21.30;49.60;;;;;;10332078;28;767;-74
2023/06/06 05:27:08;;;;;;;;;;;21.30;49.60;;;;;;10331832;28;1956;-74
2023/06/06 05:32:03;;;;;;;;;;;21.30;49.60;;;;;;10332339;28;782;-74
2023/06/06 05:36:59;;;;;;;;;;;21.30;49.60;;;;;;10331350;28;1240;-74
2023/06/06 05:41:54;;;;;;;;;;;21.30;49.60;;;;;;10331392;28;785;-74
2023/06/06 05:46:54;;;;;;;;;;;21.30;49.70;;;;;;10331143;28;1978;-74
2023/06/06 05:51:50;;;;;;;;;;;21.30;49.70;;;;;;10330904;28;912;-73
2023/06/06 05:56:45;;;;;;;;;;;21.30;49.70;;;;;;10330835;28;810;-74
2023/06/06 06:01:41;;;;;;;;;;;21.30;49.80;;;;;;10330644;28;866;-73
2023/06/06 06:06:37;;;;;;;;;;;21.30;49.80;;;;;;10330362;28;1905;-72
2023/06/06 06:11:32;;;;;;;;;;;21.30;49.80;;;;;;10329804;28;854;-72
2023/06/06 06:16:27;;;;;;;;;;;21.20;49.80;;;;;;10329547;28;867;-74
2023/06/06 06:21:24;;;;;;;;;;;21.20;49.80;;;;;;10330324;28;765;-74
2023/06/06 06:26:20;;;;;;;;;;;21.30;49.90;;;;;;10329662;28;1963;-73
2023/06/06 06:31:15;;;;;;;;;;;21.20;49.80;;;;;;10329719;28;797;-74
2023/06/06 06:36:11;;;;;;;;;;;21.30;49.90;;;;;;10326261;28;1274;-74
2023/06/06 06:41:06;;;;;;;;;;;21.30;49.80;;;;;;10329162;28;949;-74
2023/06/06 06:46:01;;;;;;;;;;;21.30;50.10;;;;;;10329431;28;1914;-74
2023/06/06 06:50:57;;;;;;;;;;;21.20;49.80;;;;;;10328835;28;885;-74
2023/06/06 06:55:52;;;;;;;;;;;21.20;49.80;;;;;;10328496;28;829;-74
2023/06/06 07:00:47;;;;;;;;;;;21.20;49.90;;;;;;10328247;28;842;-75
2023/06/06 07:05:43;;;;;;;;;;;21.20;49.90;;;;;;10328743;28;919;-74
2023/06/06 07:10:38;;;;;;;;;;;21.20;49.90;;;;;;10327841;28;1952;-75
2023/06/06 07:15:34;;;;;;;;;;;21.20;49.90;;;;;;10328241;28;838;-74
2023/06/06 07:20:29;;;;;;;;;;;21.20;49.90;;;;;;10327466;28;782;-74
2023/06/06 07:25:25;;;;;;;;;;;21.20;49.90;;;;;;10327014;28;886;-73
2023/06/06 07:30:20;;;;;;;;;;;21.20;50.00;;;;;;10327732;28;1898;-74
2023/06/06 07:35:15;;;;;;;;;;;21.20;49.90;;;;;;10326765;28;1450;-74
2023/06/06 07:40:11;;;;;;;;;;;21.20;50.00;;;;;;10326650;28;791;-74
2023/06/06 07:45:06;;;;;;;;;;;21.10;49.90;;;;;;10324524;28;1523;-74
2023/06/06 07:50:02;;;;;;;;;;;21.20;50.00;;;;;;10323397;28;1972;-74
2023/06/06 07:55:01;;;;;;;;;;;21.10;50.00;;;;;;10325712;28;901;-74
2023/06/06 07:59:56;;;;;;;;;;;21.10;50.00;;;;;;10326097;28;855;-74
2023/06/06 08:04:52;;;;;;;;;;;21.10;50.00;;;;;;10326130;28;893;-73
2023/06/06 08:09:48;;;;;;;;;;;21.10;50.00;;;;;;10325762;28;1902;-73
2023/06/06 08:14:43;;;;;;;;;;;21.10;50.10;;;;;;10324909;28;908;-73
2023/06/06 08:19:38;;;;;;;;;;;21.10;50.10;;;;;;10325588;28;930;-74
2023/06/06 08:24:34;;;;;;;;;;;21.10;50.10;;;;;;10325022;28;886;-75
2023/06/06 08:29:29;;;;;;;;;;;21.10;50.10;;;;;;10325257;28;1901;-74
2023/06/06 08:34:26;;;;;;;;;;;21.10;50.10;;;;;;10324310;28;1066;-74
2023/06/06 08:39:22;;;;;;;;;;;21.10;50.10;;;;;;10338061;28;880;-71
2023/06/06 08:44:17;;;;;;;;;;;21.10;50.10;;;;;;10338233;28;853;-71
2023/06/06 08:49:12;;;;;;;;;;;21.10;50.10;;;;;;10338512;28;1961;-71
2023/06/06 08:54:08;;;;;;;;;;;21.10;50.20;;;;;;10338026;28;893;-71
2023/06/06 08:59:03;;;;;;;;;;;21.10;50.20;;;;;;10338383;28;771;-71
2023/06/06 09:03:58;;;;;;;;;;;21.10;50.20;;;;;;10338012;28;826;-72
2023/06/06 09:08:54;;;;;;;;;;;21.00;50.20;;;;;;10338115;28;1902;-71
2023/06/06 09:13:50;;;;;;;;;;;21.00;50.20;;;;;;10337617;28;1197;-69
2023/06/06 09:18:45;;;;;;;;;;;21.00;50.30;;;;;;10337039;28;1190;-70
2023/06/06 09:23:40;;;;;;;;;;;21.10;51.20;;;;;;10337928;28;893;-67
2023/06/06 09:28:36;;;;;;;;;;;21.10;50.60;;;;;;10366694;28;1971;-71
2023/06/06 09:33:33;;;;;;;;;;;21.00;50.90;;;;;;10377099;28;1002;-68
2023/06/06 09:38:31;;;;;;;;;;;21.00;51.10;;;;;;10338310;28;937;-68
2023/06/06 09:43:27;;;;;;;;;;;21.00;51.20;;;;;;10337689;28;865;-69
2023/06/06 09:48:22;;;;;;;;;;;21.00;51.30;;;;;;10334464;28;1975;-68
2023/06/06 09:53:18;;;;;;;;;;;21.00;51.60;;;;;;10331670;28;874;-68
2023/06/06 09:58:13;;;;;;;;;;;21.00;51.80;;;;;;10330693;28;763;-68
2023/06/06 10:03:08;;;;;;;;;;;21.00;52.00;;;;;;10329996;28;924;-68
2023/06/06 10:08:04;;;;;;;;;;;21.00;52.20;;;;;;10330322;28;1901;-68
2023/06/06 10:13:00;;;;;;;;;;;20.90;52.20;;;;;;10330209;28;1063;-68
2023/06/06 10:17:55;;;;;;;;;;;21.00;52.40;;;;;;10330651;28;884;-68
2023/06/06 10:22:50;;;;;;;;;;;21.00;52.40;;;;;;10329781;28;875;-69
2023/06/06 10:27:46;;;;;;;;;;;20.90;52.50;;;;;;10329336;28;1903;-69
2023/06/06 10:32:41;;;;;;;;;;;21.00;52.60;;;;;;10329931;28;822;-69
2023/06/06 10:37:38;;;;;;;;;;;21.00;53.20;;;;;;10329048;28;1259;-68
2023/06/06 10:42:33;;;;;;;;;;;21.00;52.50;;;;;;10338893;28;1232;-68
2023/06/06 10:47:28;;;;;;;;;;;21.00;52.50;;;;;;10370196;28;2059;-68
2023/06/06 10:52:24;;;;;;;;;;;21.00;52.60;;;;;;10371051;28;817;-69
2023/06/06 10:57:19;;;;;;;;;;;21.00;52.50;;;;;;10369958;28;864;-69
2023/06/06 11:02:15;;;;;;;;;;;21.00;52.50;;;;;;10368349;28;933;-69
2023/06/06 11:07:10;;;;;;;;;;;21.00;52.60;;;;;;10369288;28;1911;-69
2023/06/06 11:12:06;;;;;;;;;;;21.10;52.70;;;;;;10369325;28;856;-69
2023/06/06 11:17:01;;;;;;;;;;;21.10;52.60;;;;;;10368932;28;771;-69
2023/06/06 11:21:57;;;;;;;;;;;21.10;52.80;;;;;;10368577;28;907;-69
2023/06/06 11:26:53;;;;;;;;;;;21.10;52.80;;;;;;10368296;28;1902;-69
2023/06/06 11:31:48;;;;;;;;;;;21.10;52.80;;;;;;10368976;28;869;-68
2023/06/06 11:36:47;;;;;;;;;;;21.10;52.90;;;;;;10368552;28;1057;-68
2023/06/06 11:41:42;;;;;;;;;;;21.10;53.00;;;;;;10367985;28;992;-69
2023/06/06 11:46:37;;;;;;;;;;;21.10;53.00;;;;;;10367779;28;1975;-69
2023/06/06 11:51:33;;;;;;;;;;;21.10;53.20;;;;;;10368079;28;779;-68
2023/06/06 11:56:28;;;;;;;;;;;21.10;53.20;;;;;;10366869;28;905;-69
2023/06/06 12:01:24;;;;;;;;;;;21.10;53.30;;;;;;10367454;28;810;-69
2023/06/06 12:06:22;;;;;;;;;;;21.10;53.40;;;;;;10367079;28;1961;-69
2023/06/06 12:11:18;;;;;;;;;;;21.10;53.50;;;;;;10366100;28;970;-69
2023/06/06 12:16:13;;;;;;;;;;;21.10;53.40;;;;;;10366785;28;1181;-69
2023/06/06 12:21:11;;;;;;;;;;;21.10;53.30;;;;;;10366747;28;948;-69
2023/06/06 12:26:06;;;;;;;;;;;21.00;53.20;;;;;;10366520;28;1957;-67
2023/06/06 12:31:02;;;;;;;;;;;21.10;53.20;;;;;;10366604;28;789;-68
2023/06/06 12:35:57;;;;;;;;;;;21.00;53.30;;;;;;10366104;28;1230;-67
2023/06/06 12:40:52;;;;;;;;;;;21.10;53.40;;;;;;10366335;28;884;-70
2023/06/06 12:45:48;;;;;;;;;;;21.10;53.30;;;;;;10365519;28;947;-70
2023/06/06 12:50:43;;;;;;;;;;;21.10;53.50;;;;;;10365493;28;1914;-70
2023/06/06 12:55:39;;;;;;;;;;;21.10;53.40;;;;;;10366658;28;837;-70
2023/06/06 13:00:35;;;;;;;;;;;21.10;53.30;;;;;;10365979;28;882;-71
2023/06/06 13:05:30;;;;;;;;;;;21.10;53.30;;;;;;10365744;28;777;-72
2023/06/06 13:10:25;;;;;;;;;;;21.10;53.30;;;;;;10366276;28;1980;-72
2023/06/06 13:15:21;;;;;;;;;;;21.10;53.20;;;;;;10365669;28;779;-72
2023/06/06 13:20:18;;;;;;;;;;;21.10;53.10;;;;;;10365595;28;739;-72
2023/06/06 13:25:13;;;;;;;;;;;21.10;53.00;;;;;;10372133;28;886;-73
2023/06/06 13:30:09;;;;;;;;;;;21.00;52.90;;;;;;10372544;28;1981;-71
2023/06/06 13:35:05;;;;;;;;;;;21.10;52.90;;;;;;10371879;28;1145;-71
2023/06/06 13:40:00;;;;;;;;;;;21.10;52.90;;;;;;10372604;28;846;-71
2023/06/06 13:44:55;;;;;;;;;;;21.10;52.90;;;;;;10372032;28;866;-71
2023/06/06 13:49:51;;;;;;;;;;;21.10;52.90;;;;;;10372370;28;1952;-71
2023/06/06 13:54:47;;;;;;;;;;;21.10;52.90;;;;;;10372842;28;833;-71
2023/06/06 13:59:42;;;;;;;;;;;21.10;52.80;;;;;;10372074;28;944;-71
2023/06/06 14:04:39;;;;;;;;;;;21.10;52.80;;;;;;10371425;28;945;-73
2023/06/06 14:09:34;;;;;;;;;;;21.10;52.80;;;;;;10371555;28;1909;-71
2023/06/06 14:14:30;;;;;;;;;;;21.10;52.80;;;;;;10371640;28;925;-72
2023/06/06 14:19:35;;;;;;;;;;;21.10;52.80;;;;;;10371177;28;1566;-71
2023/06/06 14:24:31;;;;;;;;;;;21.10;52.70;;;;;;10371046;28;902;-71
2023/06/06 14:29:27;;;;;;;;;;;21.10;52.70;;;;;;10370752;28;1961;-71
2023/06/06 14:34:22;;;;;;;;;;;21.20;52.60;;;;;;10369519;28;1415;-71
2023/06/06 14:39:17;;;;;;;;;;;21.30;52.60;;;;;;10370454;28;880;-71
2023/06/06 14:44:13;;;;;;;;;;;21.30;52.70;;;;;;10370738;28;938;-71
2023/06/06 14:49:09;;;;;;;;;;;21.30;52.70;;;;;;10369388;28;1978;-72
2023/06/06 14:54:05;;;;;;;;;;;21.30;52.60;;;;;;10369775;28;887;-71
2023/06/06 14:59:01;;;;;;;;;;;21.40;52.50;;;;;;10369065;28;813;-73
2023/06/06 15:03:56;;;;;;;;;;;21.50;52.40;;;;;;10368170;28;1153;-74
2023/06/06 15:08:52;;;;;;;;;;;21.60;52.30;;;;;;10368955;28;1889;-73
2023/06/06 15:13:47;;;;;;;;;;;21.60;52.40;;;;;;10369017;28;821;-73
2023/06/06 15:18:42;;;;;;;;;;;21.50;52.50;;;;;;10368570;28;935;-73
2023/06/06 15:23:38;;;;;;;;;;;21.50;52.60;;;;;;10368507;28;814;-73
2023/06/06 15:28:33;;;;;;;;;;;21.50;52.60;;;;;;10368226;28;1906;-73
2023/06/06 15:33:28;;;;;;;;;;;21.50;52.70;;;;;;10368597;28;966;-73
2023/06/06 15:38:24;;;;;;;;;;;21.50;52.90;;;;;;10367785;28;1168;-73
2023/06/06 15:43:19;;;;;;;;;;;21.60;52.70;;;;;;10367715;28;814;-73
2023/06/06 15:48:16;;;;;;;;;;;21.70;52.80;;;;;;10368508;28;1918;-73
2023/06/06 15:53:11;;;;;;;;;;;21.70;52.90;;;;;;10368565;28;863;-73
2023/06/06 15:58:06;;;;;;;;;;;21.70;53.10;;;;;;10367850;28;821;-72
2023/06/06 16:03:02;;;;;;;;;;;21.60;53.20;;;;;;10367599;28;840;-73
2023/06/06 16:07:57;;;;;;;;;;;21.60;53.30;;;;;;10366893;28;1914;-71
2023/06/06 16:12:52;;;;;;;;;;;21.60;53.50;;;;;;10366787;28;876;-72
2023/06/06 16:17:48;;;;;;;;;;;21.50;53.80;;;;;;10367251;28;871;-73
2023/06/06 16:22:43;;;;;;;;;;;21.40;54.10;;;;;;10365037;28;1753;-68
2023/06/06 16:27:39;;;;;;;;;;;21.40;54.20;;;;;;10367412;28;1897;-68
2023/06/06 16:32:34;;;;;;;;;;;21.40;54.20;;;;;;10366481;28;846;-68
2023/06/06 16:37:29;;;;;;;;;;;21.40;54.30;;;;;;10365387;28;1231;-68
2023/06/06 16:42:25;;;;;;;;;;;21.40;54.30;;;;;;10366332;28;822;-68
2023/06/06 16:47:21;;;;;;;;;;;21.30;54.20;;;;;;10367218;28;1910;-72
2023/06/06 16:52:17;;;;;;;;;;;21.30;54.20;;;;;;10366266;28;857;-72
2023/06/06 16:57:13;;;;;;;;;;;21.30;54.20;;;;;;10368701;28;819;-72
2023/06/06 17:02:08;;;;;;;;;;;21.30;54.20;;;;;;10374139;28;1021;-72
2023/06/06 17:07:04;;;;;;;;;;;21.30;54.20;;;;;;10374110;28;1902;-72
2023/06/06 17:12:00;;;;;;;;;;;21.30;54.20;;;;;;10373912;28;871;-70
2023/06/06 17:16:55;;;;;;;;;;;21.30;54.20;;;;;;10373707;28;883;-70
2023/06/06 17:21:50;;;;;;;;;;;21.30;54.10;;;;;;10373716;28;988;-72
2023/06/06 17:26:46;;;;;;;;;;;21.30;54.10;;;;;;10373333;28;1905;-72
2023/06/06 17:31:41;;;;;;;;;;;21.30;54.10;;;;;;10373408;28;971;-72
2023/06/06 17:36:36;;;;;;;;;;;21.30;54.10;;;;;;10373166;28;1111;-72
2023/06/06 17:41:32;;;;;;;;;;;21.30;54.10;;;;;;10372838;28;871;-70
2023/06/06 17:46:31;;;;;;;;;;;21.30;54.00;;;;;;10372370;28;1965;-71
2023/06/06 17:51:28;;;;;;;;;;;21.30;54.00;;;;;;10371801;28;2001;-71
2023/06/06 17:56:24;;;;;;;;;;;21.30;54.00;;;;;;10372267;28;797;-71
2023/06/06 18:01:19;;;;;;;;;;;21.30;54.10;;;;;;10372670;28;865;-71
2023/06/06 18:06:18;;;;;;;;;;;21.30;54.20;;;;;;10371647;28;1910;-71
2023/06/06 18:11:13;;;;;;;;;;;21.30;54.20;;;;;;10370286;28;953;-72
2023/06/06 18:16:10;;;;;;;;;;;21.30;54.30;;;;;;10371689;28;750;-69
2023/06/06 18:21:07;;;;;;;;;;;21.30;54.30;;;;;;10372125;28;770;-69
2023/06/06 18:26:02;;;;;;;;;;;21.30;54.30;;;;;;10371713;28;901;-69
2023/06/06 18:30:57;;;;;;;;;;;21.30;54.20;;;;;;10370855;28;1898;-69
2023/06/06 18:35:53;;;;;;;;;;;21.30;54.20;;;;;;10370285;28;1465;-69
2023/06/06 18:40:48;;;;;;;;;;;21.30;54.10;;;;;;10370292;28;827;-69
2023/06/06 18:45:43;;;;;;;;;;;21.30;54.10;;;;;;10370089;28;949;-69
2023/06/06 18:50:39;;;;;;;;;;;21.30;54.10;;;;;;10370149;28;1977;-70
2023/06/06 18:55:35;;;;;;;;;;;21.30;54.10;;;;;;10369803;28;841;-72
2023/06/06 19:00:30;;;;;;;;;;;21.30;54.10;;;;;;10369739;28;871;-72
2023/06/06 19:05:26;;;;;;;;;;;21.30;54.00;;;;;;10370210;28;777;-72
2023/06/06 19:10:21;;;;;;;;;;;21.30;54.00;;;;;;10369182;28;1906;-72
2023/06/06 19:15:17;;;;;;;;;;;21.30;54.00;;;;;;10369160;28;990;-72
2023/06/06 19:20:13;;;;;;;;;;;21.30;54.00;;;;;;10368001;28;849;-73
2023/06/06 19:25:08;;;;;;;;;;;21.30;53.90;;;;;;10368529;28;1264;-73
2023/06/06 19:30:04;;;;;;;;;;;21.30;53.90;;;;;;10367812;28;1905;-71
2023/06/06 19:35:00;;;;;;;;;;;21.30;53.90;;;;;;10368601;28;1451;-70
2023/06/06 19:39:55;;;;;;;;;;;21.30;53.90;;;;;;10368875;28;849;-70
2023/06/06 19:44:51;;;;;;;;;;;21.30;53.90;;;;;;10368647;28;826;-70
2023/06/06 19:49:46;;;;;;;;;;;21.30;53.90;;;;;;10368356;28;1914;-70
2023/06/06 19:54:42;;;;;;;;;;;21.30;54.00;;;;;;10367635;28;870;-72
2023/06/06 19:59:37;;;;;;;;;;;21.30;54.10;;;;;;10367470;28;1024;-72
2023/06/06 20:04:32;;;;;;;;;;;21.30;54.10;;;;;;10367644;28;964;-72
2023/06/06 20:09:28;;;;;;;;;;;21.30;54.70;;;;;;10367186;28;1914;-70
2023/06/06 20:14:23;;;;;;;;;;;21.40;54.20;;;;;;10367054;28;901;-72
2023/06/06 20:19:18;;;;;;;;;;;21.30;54.00;;;;;;10366933;28;943;-72
2023/06/06 20:24:14;;;;;;;;;;;21.30;54.00;;;;;;10367116;28;909;-72
2023/06/06 20:29:09;;;;;;;;;;;21.30;53.80;;;;;;10366408;28;1914;-72
2023/06/06 20:34:05;;;;;;;;;;;21.30;53.90;;;;;;10365536;28;1227;-72
2023/06/06 20:39:03;;;;;;;;;;;21.30;53.90;;;;;;10367022;28;849;-72
2023/06/06 20:43:58;;;;;;;;;;;21.30;54.10;;;;;;10367172;28;851;-71
2023/06/06 20:48:54;;;;;;;;;;;21.30;54.10;;;;;;10366372;28;1921;-71
2023/06/06 20:53:49;;;;;;;;;;;21.30;54.20;;;;;;10365562;28;1014;-71
2023/06/06 20:58:45;;;;;;;;;;;21.30;54.20;;;;;;10365452;28;1180;-71
2023/06/06 21:03:40;;;;;;;;;;;21.30;54.40;;;;;;10365988;28;876;-71
2023/06/06 21:08:36;;;;;;;;;;;21.30;54.50;;;;;;10365184;28;1905;-71
2023/06/06 21:13:33;;;;;;;;;;;21.30;54.50;;;;;;10339399;28;1282;-70
2023/06/06 21:18:28;;;;;;;;;;;21.30;54.70;;;;;;10324172;28;787;-71
2023/06/06 21:23:24;;;;;;;;;;;21.30;55.10;;;;;;10325084;28;781;-71
2023/06/06 21:28:19;;;;;;;;;;;21.30;55.20;;;;;;10324902;28;1965;-71
2023/06/06 21:33:14;;;;;;;;;;;21.30;55.10;;;;;;10324527;28;965;-70
2023/06/06 21:38:10;;;;;;;;;;;21.30;55.30;;;;;;10323163;28;1184;-71
2023/06/06 21:43:05;;;;;;;;;;;21.30;54.90;;;;;;10326212;28;883;-71
2023/06/06 21:48:01;;;;;;;;;;;21.30;55.10;;;;;;10331307;28;1979;-71
2023/06/06 21:52:56;;;;;;;;;;;21.20;54.90;;;;;;10330537;28;896;-71
2023/06/06 21:57:51;;;;;;;;;;;21.20;54.80;;;;;;10331591;28;873;-71
2023/06/06 22:02:47;;;;;;;;;;;21.20;54.80;;;;;;10331375;28;833;-72
2023/06/06 22:07:42;;;;;;;;;;;21.30;55.00;;;;;;10330583;28;1914;-72
2023/06/06 22:12:38;;;;;;;;;;;21.30;55.20;;;;;;10331061;28;781;-71
2023/06/06 22:17:33;;;;;;;;;;;21.20;55.10;;;;;;10330264;28;854;-70
2023/06/06 22:22:28;;;;;;;;;;;21.30;55.10;;;;;;10330889;28;790;-69
2023/06/06 22:27:24;;;;;;;;;;;21.20;54.90;;;;;;10329836;28;1914;-70
2023/06/06 22:32:19;;;;;;;;;;;21.30;55.10;;;;;;10330009;28;783;-70
2023/06/06 22:37:15;;;;;;;;;;;21.20;55.20;;;;;;10329388;28;1388;-70
2023/06/06 22:42:10;;;;;;;;;;;21.30;55.20;;;;;;10329358;28;879;-70
2023/06/06 22:47:06;;;;;;;;;;;21.30;55.10;;;;;;10329666;28;1914;-70
2023/06/06 22:52:01;;;;;;;;;;;21.30;55.00;;;;;;10329051;28;951;-70
2023/06/06 22:56:56;;;;;;;;;;;21.30;54.90;;;;;;10310119;28;1502;-70
2023/06/06 23:01:52;;;;;;;;;;;21.20;54.80;;;;;;10328506;28;922;-70
2023/06/06 23:06:47;;;;;;;;;;;21.20;54.80;;;;;;10329214;28;1976;-70
2023/06/06 23:11:42;;;;;;;;;;;21.30;54.80;;;;;;10328164;28;806;-70
2023/06/06 23:16:39;;;;;;;;;;;21.20;54.70;;;;;;10327415;28;932;-70
2023/06/06 23:21:35;;;;;;;;;;;21.20;54.70;;;;;;10328438;28;799;-70
2023/06/06 23:26:31;;;;;;;;;;;21.30;54.80;;;;;;10327475;28;1913;-70
2023/06/06 23:31:26;;;;;;;;;;;21.20;54.60;;;;;;10326736;28;956;-70
2023/06/06 23:36:22;;;;;;;;;;;21.20;54.70;;;;;;10327310;28;1137;-71
2023/06/06 23:41:17;;;;;;;;;;;21.20;54.60;;;;;;10326984;28;932;-70
2023/06/06 23:46:12;;;;;;;;;;;21.20;54.60;;;;;;10326810;28;874;-70
2023/06/06 23:51:08;;;;;;;;;;;21.20;54.60;;;;;;10327079;28;1898;-70
2023/06/06 23:56:03;;;;;;;;;;;21.20;54.60;;;;;;10327936;28;841;-70
